createdAt,value
2022-09-11T00:01:39.841Z,14.25
2022-09-11T00:04:07.233Z,14.31
2022-09-11T00:06:34.600Z,14.44
2022-09-11T00:09:05.220Z,14.44
2022-09-11T00:11:40.693Z,14.38
2022-09-11T00:14:10.646Z,14.31
2022-09-11T00:16:42.543Z,14.19
2022-09-11T00:19:18.969Z,14.06
2022-09-11T00:21:47.659Z,14.13
2022-09-11T00:24:15.028Z,14.13
2022-09-11T00:26:42.820Z,14.13
2022-09-11T00:29:10.494Z,14.06
2022-09-11T00:31:37.909Z,14.25
2022-09-11T00:34:09.490Z,14.19
2022-09-11T00:36:39.253Z,14.25
2022-09-11T00:39:06.892Z,14.25
2022-09-11T00:41:42.379Z,14.38
2022-09-11T00:44:18.933Z,14.44
2022-09-11T00:46:56.703Z,14.31
2022-09-11T00:49:41.416Z,14.44
2022-09-11T00:52:28.152Z,14.31
2022-09-11T00:55:00.107Z,14.19
2022-09-11T00:57:35.004Z,14.06
2022-09-11T01:00:04.587Z,14.13
2022-09-11T01:02:36.786Z,14.13
2022-09-11T01:05:06.211Z,14.25
2022-09-11T01:07:36.372Z,14.19
2022-09-11T01:10:07.993Z,13.63
2022-09-11T01:13:10.786Z,14.13
2022-09-11T01:16:22.521Z,14.13
2022-09-11T01:19:27.006Z,14.31
2022-09-11T01:22:06.317Z,14.19
2022-09-11T01:25:09.266Z,14.25
2022-09-11T01:27:50.381Z,13.94
2022-09-11T01:30:26.607Z,14.06
2022-09-11T01:33:14.823Z,13.94
2022-09-11T01:36:03.245Z,14.00
2022-09-11T01:38:48.603Z,14.13
2022-09-11T01:41:40.805Z,14.13
2022-09-11T01:44:26.558Z,14.19
2022-09-11T01:46:54.371Z,14.25
2022-09-11T01:49:48.261Z,13.94
2022-09-11T01:52:28.126Z,14.06
2022-09-11T01:55:01.936Z,14.25
2022-09-11T01:57:52.565Z,14.19
2022-09-11T02:00:20.033Z,14.25
2022-09-11T02:02:57.723Z,14.00
2022-09-11T02:05:33.775Z,14.19
2022-09-11T02:08:11.581Z,14.19
2022-09-11T02:10:52.070Z,14.50
2022-09-11T02:13:37.278Z,14.44
2022-09-11T02:16:41.239Z,14.56
2022-09-11T02:19:14.171Z,14.38
2022-09-11T02:21:41.503Z,14.50
2022-09-11T02:24:09.686Z,14.44
2022-09-11T02:27:01.615Z,14.44
2022-09-11T02:29:29.202Z,14.44
2022-09-11T02:31:56.478Z,14.31
2022-09-11T02:34:32.218Z,14.38
2022-09-11T02:37:24.997Z,14.44
2022-09-11T02:40:50.899Z,14.50
2022-09-11T02:43:49.968Z,14.44
2022-09-11T02:47:05.606Z,14.56
2022-09-11T02:49:47.486Z,14.44
2022-09-11T02:52:31.854Z,14.50
2022-09-11T02:55:17.343Z,14.19
2022-09-11T02:58:36.672Z,14.25
2022-09-11T03:01:04.907Z,14.19
2022-09-11T03:03:46.738Z,14.38
2022-09-11T03:06:28.191Z,14.19
2022-09-11T03:08:55.852Z,14.31
2022-09-11T03:11:23.217Z,14.44
2022-09-11T03:13:50.457Z,14.38
2022-09-11T03:16:17.856Z,14.50
2022-09-11T03:18:45.140Z,14.44
2022-09-11T03:21:12.346Z,14.38
2022-09-11T03:23:39.845Z,14.50
2022-09-11T03:26:07.350Z,14.56
2022-09-11T03:28:34.717Z,14.56
2022-09-11T03:31:02.065Z,14.50
2022-09-11T03:33:29.497Z,14.44
2022-09-11T03:35:57.361Z,14.63
2022-09-11T03:38:24.885Z,14.56
2022-09-11T03:40:52.100Z,14.56
2022-09-11T03:43:19.519Z,14.81
2022-09-11T03:45:50.270Z,14.88
2022-09-11T03:48:18.500Z,14.94
2022-09-11T03:50:47.789Z,14.81
2022-09-11T03:53:15.860Z,14.81
2022-09-11T03:55:45.302Z,14.88
2022-09-11T03:58:13.167Z,14.69
2022-09-11T04:00:44.310Z,14.69
2022-09-11T04:03:12.963Z,14.88
2022-09-11T04:05:40.445Z,14.88
2022-09-11T04:08:07.760Z,14.88
2022-09-11T04:10:35.490Z,14.88
2022-09-11T04:13:02.772Z,14.75
2022-09-11T04:15:31.130Z,14.94
2022-09-11T04:18:02.105Z,14.94
2022-09-11T04:20:32.145Z,15.00
2022-09-11T04:22:59.494Z,14.88
2022-09-11T04:25:26.774Z,14.94
2022-09-11T04:27:53.963Z,15.06
2022-09-11T04:30:22.450Z,14.88
2022-09-11T04:32:50.439Z,14.88
2022-09-11T04:35:19.197Z,14.88
2022-09-11T04:37:46.388Z,14.94
2022-09-11T04:40:13.710Z,14.81
2022-09-11T04:42:41.018Z,14.88
2022-09-11T04:45:08.691Z,15.00
2022-09-11T04:47:36.007Z,15.00
2022-09-11T04:50:03.406Z,15.06
2022-09-11T04:52:31.158Z,15.00
2022-09-11T04:54:58.754Z,15.00
2022-09-11T04:57:26.250Z,14.88
2022-09-11T04:59:54.226Z,14.88
2022-09-11T05:02:21.999Z,15.13
2022-09-11T05:04:49.229Z,14.94
2022-09-11T05:07:16.581Z,15.19
2022-09-11T05:09:43.801Z,15.00
2022-09-11T05:12:11.014Z,15.13
2022-09-11T05:14:38.198Z,15.06
2022-09-11T05:17:05.538Z,15.00
2022-09-11T05:19:32.741Z,15.00
2022-09-11T05:22:00.042Z,15.06
2022-09-11T05:24:27.297Z,15.00
2022-09-11T05:26:54.528Z,14.88
2022-09-11T05:29:23.124Z,14.88
2022-09-11T05:31:50.429Z,14.94
2022-09-11T05:34:17.793Z,14.94
2022-09-11T05:36:46.015Z,15.13
2022-09-11T05:39:13.254Z,15.25
2022-09-11T05:41:40.747Z,15.31
2022-09-11T05:44:08.040Z,15.25
2022-09-11T05:46:35.252Z,15.13
2022-09-11T05:49:02.629Z,15.19
2022-09-11T05:51:29.873Z,15.19
2022-09-11T05:53:58.251Z,15.19
2022-09-11T05:56:28.271Z,15.19
2022-09-11T05:58:55.894Z,15.00
2022-09-11T06:01:26.776Z,15.00
2022-09-11T06:03:54.744Z,15.13
2022-09-11T06:06:23.680Z,15.19
2022-09-11T06:08:53.080Z,14.94
2022-09-11T06:11:22.237Z,15.19
2022-09-11T06:13:50.211Z,15.13
2022-09-11T06:16:24.318Z,15.00
2022-09-11T06:18:53.037Z,15.06
2022-09-11T06:21:23.990Z,14.94
2022-09-11T06:23:53.400Z,14.94
2022-09-11T06:26:25.113Z,15.00
2022-09-11T06:28:54.372Z,15.13
2022-09-11T06:31:25.610Z,15.13
2022-09-11T06:33:53.737Z,15.13
2022-09-11T06:36:26.695Z,15.13
2022-09-11T06:38:56.897Z,15.50
2022-09-11T06:41:25.642Z,15.50
2022-09-11T06:43:53.895Z,15.50
2022-09-11T06:46:23.956Z,15.31
2022-09-11T06:48:52.776Z,15.38
2022-09-11T06:51:23.088Z,15.50
2022-09-11T06:53:58.168Z,15.38
2022-09-11T06:56:26.379Z,15.31
2022-09-11T06:58:53.937Z,15.44
2022-09-11T07:01:23.295Z,15.44
2022-09-11T07:03:54.262Z,15.44
2022-09-11T07:06:26.403Z,15.31
2022-09-11T07:09:01.689Z,15.25
2022-09-11T07:11:34.523Z,15.31
2022-09-11T07:14:05.923Z,15.44
2022-09-11T07:16:34.015Z,15.50
2022-09-11T07:19:01.607Z,15.50
2022-09-11T07:21:29.194Z,15.81
2022-09-11T07:23:59.390Z,15.56
2022-09-11T07:26:29.215Z,15.56
2022-09-11T07:28:57.650Z,15.81
2022-09-11T07:31:33.090Z,15.81
2022-09-11T07:34:02.768Z,16.00
2022-09-11T07:36:34.097Z,15.94
2022-09-11T07:39:03.561Z,16.00
2022-09-11T07:41:31.289Z,16.13
2022-09-11T07:44:00.480Z,16.44
2022-09-11T07:46:30.010Z,16.56
2022-09-11T07:48:58.709Z,16.63
2022-09-11T07:51:26.985Z,16.56
2022-09-11T07:53:57.950Z,16.63
2022-09-11T07:56:27.464Z,16.63
2022-09-11T07:58:56.263Z,16.69
2022-09-11T08:01:27.905Z,16.56
2022-09-11T08:04:01.546Z,16.56
2022-09-11T08:06:31.662Z,16.63
2022-09-11T08:09:02.857Z,16.63
2022-09-11T08:11:32.214Z,16.50
2022-09-11T08:13:59.470Z,16.63
2022-09-11T08:16:28.532Z,16.44
2022-09-11T08:18:57.102Z,16.44
2022-09-11T08:21:26.298Z,16.69
2022-09-11T08:23:53.601Z,16.75
2022-09-11T08:26:28.564Z,17.06
2022-09-11T08:28:58.350Z,16.81
2022-09-11T08:31:27.774Z,17.13
2022-09-11T08:33:56.631Z,17.19
2022-09-11T08:36:24.569Z,17.38
2022-09-11T08:38:52.734Z,17.44
2022-09-11T08:41:41.265Z,17.63
2022-09-11T08:44:42.439Z,17.56
2022-09-11T08:47:19.200Z,17.69
2022-09-11T08:50:08.832Z,17.88
2022-09-11T08:52:37.349Z,17.81
2022-09-11T08:55:06.577Z,17.81
2022-09-11T08:57:58.859Z,17.81
2022-09-11T09:01:07.147Z,17.69
2022-09-11T09:03:57.313Z,17.75
2022-09-11T09:07:25.194Z,17.81
2022-09-11T09:10:29.842Z,17.75
2022-09-11T09:13:41.571Z,17.81
2022-09-11T09:16:29.747Z,17.69
2022-09-11T09:19:26.652Z,17.63
2022-09-11T09:40:10.439Z,17.25
2022-09-11T09:43:03.448Z,17.50
2022-09-11T09:45:45.033Z,17.63
2022-09-11T09:48:12.978Z,17.81
2022-09-11T09:50:44.020Z,18.25
2022-09-11T09:53:23.879Z,18.50
2022-09-11T09:55:54.489Z,18.31
2022-09-11T09:58:26.285Z,18.19
2022-09-11T10:00:53.566Z,18.25
2022-09-11T10:03:25.830Z,18.44
2022-09-11T10:05:56.069Z,18.75
2022-09-11T10:08:36.160Z,18.94
2022-09-11T10:11:13.430Z,19.13
2022-09-11T10:13:45.398Z,19.50
2022-09-11T10:16:28.787Z,19.31
2022-09-11T10:18:56.838Z,19.69
2022-09-11T10:21:34.114Z,19.63
2022-09-11T10:24:23.408Z,19.63
2022-09-11T10:26:54.260Z,19.38
2022-09-11T10:29:26.873Z,19.13
2022-09-11T10:31:57.470Z,18.94
2022-09-11T10:34:27.480Z,18.69
2022-09-11T10:37:17.284Z,18.44
2022-09-11T10:39:48.107Z,18.63
2022-09-11T10:42:23.179Z,18.88
2022-09-11T10:44:53.296Z,19.19
2022-09-11T10:47:31.135Z,19.06
2022-09-11T10:50:21.135Z,18.81
2022-09-11T10:53:19.950Z,18.81
2022-09-11T10:55:58.279Z,18.75
2022-09-11T10:58:33.732Z,19.00
2022-09-11T11:01:01.688Z,19.00
2022-09-11T11:03:30.027Z,18.94
2022-09-11T11:06:26.916Z,18.88
2022-09-11T11:09:34.444Z,18.88
2022-09-11T11:12:32.062Z,19.00
2022-09-11T11:15:29.925Z,18.75
2022-09-11T11:18:12.005Z,18.88
2022-09-11T11:21:13.109Z,19.00
2022-09-11T11:24:21.960Z,19.06
2022-09-11T11:27:37.949Z,18.88
2022-09-11T11:30:40.454Z,18.94
2022-09-11T11:33:27.190Z,19.13
2022-09-11T11:36:37.988Z,19.25
2022-09-11T11:39:38.195Z,18.69
2022-09-11T11:42:26.936Z,19.25
2022-09-11T11:45:07.216Z,19.56
2022-09-11T11:47:44.747Z,19.56
2022-09-11T11:50:47.597Z,19.63
2022-09-11T12:03:15.787Z,19.69
2022-09-11T12:05:43.175Z,19.94
2022-09-11T12:08:15.949Z,19.88
2022-09-11T12:11:07.573Z,19.88
2022-09-11T12:13:47.484Z,20.00
2022-09-11T12:16:17.389Z,20.00
2022-09-11T12:19:19.795Z,19.81
2022-09-11T12:21:52.926Z,19.50
2022-09-11T12:24:50.682Z,19.25
2022-09-11T12:27:50.739Z,19.38
2022-09-11T12:30:17.920Z,19.56
2022-09-11T12:32:51.166Z,19.75
2022-09-11T12:35:42.283Z,19.56
2022-09-11T12:38:09.463Z,19.88
2022-09-11T12:40:48.536Z,19.81
2022-09-11T12:43:37.350Z,19.88
2022-09-11T12:46:10.916Z,19.63
2022-09-11T12:48:52.542Z,20.00
2022-09-11T12:51:55.217Z,20.25
2022-09-11T12:54:40.753Z,20.06
2022-09-11T12:57:28.090Z,20.00
2022-09-11T13:00:24.336Z,20.06
2022-09-11T13:02:58.114Z,19.94
2022-09-11T13:05:38.518Z,19.94
2022-09-11T13:08:16.416Z,20.00
2022-09-11T13:10:43.729Z,19.94
2022-09-11T13:13:43.493Z,19.63
2022-09-11T13:16:25.797Z,19.56
2022-09-11T13:19:03.411Z,19.44
2022-09-11T13:21:38.429Z,19.38
2022-09-11T13:24:28.450Z,19.06
2022-09-11T13:27:03.127Z,18.94
2022-09-11T13:29:34.036Z,18.75
2022-09-11T13:32:11.449Z,18.44
2022-09-11T13:34:41.847Z,18.31
2022-09-11T13:37:13.333Z,18.25
2022-09-11T13:39:43.440Z,18.31
2022-09-11T13:42:18.399Z,18.19
2022-09-11T13:44:52.304Z,18.25
2022-09-11T13:47:27.870Z,18.25
2022-09-11T13:50:02.876Z,18.38
2022-09-11T13:52:34.769Z,18.50
2022-09-11T13:55:10.457Z,18.25
2022-09-11T13:58:02.068Z,18.19
2022-09-11T14:00:45.279Z,18.00
2022-09-11T14:03:32.154Z,17.94
2022-09-11T14:06:04.671Z,17.94
2022-09-11T14:08:35.278Z,17.69
2022-09-11T14:11:27.190Z,17.69
2022-09-11T14:14:11.816Z,17.75
2022-09-11T14:16:48.966Z,17.81
2022-09-11T14:19:34.636Z,17.75
2022-09-11T14:22:15.813Z,17.50
2022-09-11T14:25:11.864Z,17.50
2022-09-11T14:27:44.152Z,16.75
2022-09-11T14:30:25.735Z,16.19
2022-09-11T14:33:25.061Z,16.00
2022-09-11T14:35:58.637Z,15.81
2022-09-11T14:38:26.326Z,16.13
2022-09-11T14:41:04.258Z,15.81
2022-09-11T14:43:34.707Z,15.81
2022-09-11T14:46:03.305Z,15.81
2022-09-11T14:48:33.826Z,15.88
2022-09-11T14:51:11.416Z,15.75
2022-09-11T14:53:43.534Z,15.88
2022-09-11T14:56:10.965Z,16.00
2022-09-11T14:58:38.705Z,16.25
2022-09-11T15:01:06.035Z,16.25
2022-09-11T15:03:33.314Z,16.31
2022-09-11T15:06:00.623Z,16.38
2022-09-11T15:08:27.915Z,16.50
2022-09-11T15:10:55.158Z,16.31
2022-09-11T15:13:22.997Z,16.00
2022-09-11T15:15:50.294Z,16.19
2022-09-11T15:18:18.914Z,16.00
2022-09-11T15:20:46.506Z,15.88
2022-09-11T15:23:13.918Z,15.81
2022-09-11T15:25:41.150Z,16.06
2022-09-11T15:28:10.299Z,16.06
2022-09-11T15:30:38.593Z,16.13
2022-09-11T15:33:05.901Z,16.25
2022-09-11T15:35:33.317Z,16.38
2022-09-11T15:38:00.630Z,16.38
2022-09-11T15:40:27.920Z,16.38
2022-09-11T15:42:57.285Z,16.25
2022-09-11T15:45:24.861Z,16.44
2022-09-11T15:47:52.141Z,16.25
2022-09-11T15:50:24.705Z,16.31
2022-09-11T15:52:53.804Z,16.31
2022-09-11T15:55:21.122Z,16.19
2022-09-11T15:57:48.351Z,16.25
2022-09-11T16:00:16.044Z,16.25
2022-09-11T16:02:43.400Z,16.25
2022-09-11T16:05:10.684Z,16.06
2022-09-11T16:07:37.911Z,16.00
2022-09-11T16:10:05.653Z,15.75
2022-09-11T16:12:34.772Z,16.00
2022-09-11T16:15:02.211Z,16.00
2022-09-11T16:17:32.439Z,16.13
2022-09-11T16:20:00.223Z,16.13
2022-09-11T16:22:31.361Z,16.25
2022-09-11T16:24:59.447Z,16.06
2022-09-11T16:27:26.750Z,16.06
2022-09-11T16:32:41.327Z,16.19
2022-09-11T16:35:13.345Z,16.13
2022-09-11T16:37:40.775Z,16.06
2022-09-11T16:40:09.657Z,16.13
2022-09-11T16:42:37.018Z,16.00
2022-09-11T16:45:04.627Z,15.88
2022-09-11T16:47:32.484Z,15.94
2022-09-11T16:50:09.774Z,16.00
2022-09-11T16:52:39.220Z,15.81
2022-09-11T16:55:09.827Z,15.88
2022-09-11T16:57:37.334Z,15.94
2022-09-11T17:00:08.877Z,16.00
2022-09-11T17:02:37.557Z,15.94
2022-09-11T17:05:07.787Z,15.94
2022-09-11T17:07:36.723Z,15.88
2022-09-11T17:10:04.957Z,15.75
2022-09-11T17:12:32.469Z,15.88
2022-09-11T17:14:59.730Z,15.88
2022-09-11T17:17:27.068Z,15.44
2022-09-11T17:19:54.481Z,15.56
2022-09-11T17:22:21.737Z,15.69
2022-09-11T17:24:49.001Z,15.63
2022-09-11T17:27:16.317Z,15.63
2022-09-11T17:29:44.928Z,15.75
2022-09-11T17:32:31.164Z,15.75
2022-09-11T17:34:59.279Z,15.63
2022-09-11T17:37:27.405Z,15.69
2022-09-11T17:39:55.621Z,15.56
2022-09-11T17:42:22.945Z,15.63
2022-09-11T17:44:50.243Z,15.69
2022-09-11T17:47:17.427Z,15.56
2022-09-11T17:49:45.370Z,15.44
2022-09-11T17:52:13.977Z,15.44
2022-09-11T17:54:41.309Z,15.25
2022-09-11T17:57:08.709Z,15.38
2022-09-11T17:59:36.833Z,15.44
2022-09-11T18:02:04.211Z,15.31
2022-09-11T18:04:31.819Z,15.38
2022-09-11T18:06:59.123Z,15.44
2022-09-11T18:09:26.354Z,15.31
2022-09-11T18:11:54.650Z,15.19
2022-09-11T18:14:22.130Z,15.13
2022-09-11T18:16:49.486Z,15.25
2022-09-11T18:19:20.446Z,15.31
2022-09-11T18:21:50.524Z,15.44
2022-09-11T18:24:20.847Z,15.38
2022-09-11T18:26:51.791Z,15.50
2022-09-11T18:29:21.134Z,15.44
2022-09-11T18:31:53.570Z,15.50
2022-09-11T18:34:27.865Z,15.50
2022-09-11T18:36:55.241Z,15.44
2022-09-11T18:39:23.281Z,15.50
2022-09-11T18:41:54.467Z,15.31
2022-09-11T18:44:24.699Z,15.25
2022-09-11T18:46:56.260Z,15.19
2022-09-11T18:49:23.865Z,15.13
2022-09-11T18:51:52.066Z,15.13
2022-09-11T18:54:21.365Z,14.88
2022-09-11T18:56:50.587Z,15.00
2022-09-11T18:59:20.215Z,14.75
2022-09-11T19:01:48.120Z,14.94
2022-09-11T19:04:16.930Z,15.00
2022-09-11T19:06:45.343Z,15.19
2022-09-11T19:09:13.446Z,14.94
2022-09-11T19:11:42.103Z,15.00
2022-09-11T19:14:12.606Z,15.19
2022-09-11T19:16:41.043Z,15.00
2022-09-11T19:19:09.050Z,15.13
2022-09-11T19:21:38.481Z,15.13
2022-09-11T19:24:07.575Z,15.06
2022-09-11T19:26:39.045Z,14.94
2022-09-11T19:29:08.684Z,14.94
2022-09-11T19:31:39.334Z,14.81
2022-09-11T19:34:09.605Z,14.88
2022-09-11T19:36:36.885Z,15.00
2022-09-11T19:39:05.646Z,15.00
2022-09-11T19:41:39.776Z,15.06
2022-09-11T19:44:08.443Z,15.06
2022-09-11T19:46:38.105Z,15.06
2022-09-11T19:49:06.799Z,14.69
2022-09-11T19:51:41.559Z,14.63
2022-09-11T19:54:11.630Z,14.75
2022-09-11T19:56:39.796Z,14.75
2022-09-11T19:59:08.501Z,14.81
2022-09-11T20:01:36.106Z,14.81
2022-09-11T20:04:03.823Z,14.56
2022-09-11T20:06:34.435Z,14.63
2022-09-11T20:09:29.309Z,14.44
2022-09-11T20:11:49.916Z,14.50
2022-09-11T20:14:17.609Z,14.63
2022-09-11T20:16:44.840Z,14.50
2022-09-11T20:19:12.279Z,14.69
2022-09-11T20:21:39.496Z,14.56
2022-09-11T20:24:07.445Z,14.56
2022-09-11T20:26:35.679Z,14.63
2022-09-11T20:29:07.184Z,14.75
2022-09-11T20:31:46.459Z,14.63
2022-09-11T20:34:17.647Z,14.63
2022-09-11T20:36:45.369Z,14.69
2022-09-11T20:39:15.218Z,14.69
2022-09-11T20:41:43.049Z,14.69
2022-09-11T20:44:10.806Z,14.75
2022-09-11T20:46:38.101Z,14.69
2022-09-11T20:49:05.813Z,14.88
2022-09-11T20:51:34.817Z,14.88
2022-09-11T20:54:02.670Z,14.69
2022-09-11T20:56:30.268Z,14.56
2022-09-11T20:58:57.807Z,14.69
2022-09-11T21:01:35.374Z,14.88
2022-09-11T21:04:05.089Z,14.94
2022-09-11T21:06:35.486Z,14.88
2022-09-11T21:09:11.089Z,14.88
2022-09-11T21:11:41.020Z,14.88
2022-09-11T21:14:08.610Z,14.88
2022-09-11T21:16:36.091Z,14.94
2022-09-11T21:19:04.964Z,14.88
2022-09-11T21:21:34.404Z,14.88
2022-09-11T21:24:04.860Z,14.88
2022-09-11T21:26:34.236Z,14.81
2022-09-11T21:29:05.428Z,14.56
2022-09-11T21:31:34.100Z,14.88
2022-09-11T21:34:02.237Z,14.88
2022-09-11T21:36:29.881Z,14.75
2022-09-11T21:38:57.119Z,14.94
2022-09-11T21:41:24.403Z,14.75
2022-09-11T21:43:51.700Z,14.81
2022-09-11T21:46:18.970Z,15.00
2022-09-11T21:48:46.321Z,14.88
2022-09-11T21:51:20.238Z,14.81
2022-09-11T21:53:49.985Z,14.88
2022-09-11T21:56:26.502Z,14.94
2022-09-11T21:58:55.147Z,14.75
2022-09-11T22:01:25.084Z,14.94
2022-09-11T22:03:53.126Z,14.81
2022-09-11T22:06:22.338Z,14.81
2022-09-11T22:08:49.610Z,14.88
2022-09-11T22:11:17.043Z,14.94
2022-09-11T22:13:44.695Z,14.94
2022-09-11T22:16:16.644Z,14.94
2022-09-11T22:18:48.218Z,15.06
2022-09-11T22:21:16.245Z,15.00
2022-09-11T22:23:43.709Z,14.94
2022-09-11T22:26:20.513Z,14.88
2022-09-11T22:28:47.844Z,14.94
2022-09-11T22:31:22.351Z,15.06
2022-09-11T22:33:49.807Z,15.00
2022-09-11T22:36:24.753Z,15.06
2022-09-11T22:38:52.604Z,15.00
2022-09-11T22:41:20.219Z,14.94
2022-09-11T22:43:48.919Z,14.75
2022-09-11T22:46:17.832Z,14.69
2022-09-11T22:48:45.087Z,14.81
2022-09-11T22:51:12.663Z,14.81
2022-09-11T22:53:40.513Z,14.81
2022-09-11T22:56:09.490Z,14.88
2022-09-11T22:58:38.442Z,14.69
2022-09-11T23:01:09.648Z,14.81
2022-09-11T23:03:37.681Z,14.75
2022-09-11T23:06:23.908Z,14.81
2022-09-11T23:08:52.680Z,14.81
2022-09-11T23:11:20.887Z,14.69
2022-09-11T23:13:49.864Z,14.56
2022-09-11T23:16:21.875Z,14.56
2022-09-11T23:18:54.329Z,14.44
2022-09-11T23:21:21.633Z,14.50
2022-09-11T23:23:54.976Z,14.44
2022-09-11T23:26:24.297Z,14.31
2022-09-11T23:28:53.448Z,14.19
2022-09-11T23:31:32.920Z,14.13
2022-09-11T23:34:03.804Z,14.25
2022-09-11T23:36:32.146Z,14.31
2022-09-11T23:38:59.599Z,14.31
2022-09-11T23:41:27.705Z,14.31
2022-09-11T23:43:55.802Z,14.19
2022-09-11T23:46:23.015Z,14.19
2022-09-11T23:48:50.321Z,14.19
2022-09-11T23:51:17.651Z,14.25
2022-09-11T23:53:45.585Z,14.06
2022-09-11T23:56:14.589Z,13.94
2022-09-11T23:58:42.956Z,14.13
